Terminal Aerodrome Forecast
Issued by NWS Huntsville, AL

Home | Current Version | Previous Version | Text Only | Print | Product List | Glossary On
Versions: 1 2 3 4 5 6 7 8 9 10 11 12 13 14 15 16 17 18 19 20 21 22 23 24
000
FTUS44 KHUN 032320
TAFHSV
TAF
KHSV 032320Z 0400/0424 VRB04KT P6SM VCSH SCT070 SCT250
     FM040100 VRB03KT P6SM SCT250
      TEMPO 0409/0412 5SM BR
     FM041500 VRB05KT P6SM SCT250=

USA.gov is the U.S. government's official web portal to all federal, state and local government web resources and services.